sensor_id;sensor_type;location;lat;lon;timestamp;P1;durP1;ratioP1;P2;durP2;ratioP2
146;SDS011;45999;48.808;9.182;2023-09-08T00:00:30;8.43;;;7.40;;
146;SDS011;45999;48.808;9.182;2023-09-08T00:02:57;8.53;;;7.57;;
146;SDS011;45999;48.808;9.182;2023-09-08T00:05:23;8.13;;;7.27;;
146;SDS011;45999;48.808;9.182;2023-09-08T00:07:49;7.90;;;7.10;;
146;SDS011;45999;48.808;9.182;2023-09-08T00:10:16;8.83;;;7.93;;
146;SDS011;45999;48.808;9.182;2023-09-08T00:12:42;9.17;;;7.87;;
146;SDS011;45999;48.808;9.182;2023-09-08T00:15:09;9.07;;;7.20;;
146;SDS011;45999;48.808;9.182;2023-09-08T00:17:35;8.53;;;7.10;;
146;SDS011;45999;48.808;9.182;2023-09-08T00:20:03;7.57;;;6.83;;
146;SDS011;45999;48.808;9.182;2023-09-08T00:22:33;8.10;;;7.30;;
146;SDS011;45999;48.808;9.182;2023-09-08T00:24:59;8.10;;;7.40;;
146;SDS011;45999;48.808;9.182;2023-09-08T00:27:26;10.60;;;7.27;;
146;SDS011;45999;48.808;9.182;2023-09-08T00:29:52;7.33;;;6.63;;
146;SDS011;45999;48.808;9.182;2023-09-08T00:32:18;7.97;;;7.27;;
146;SDS011;45999;48.808;9.182;2023-09-08T00:34:45;6.90;;;6.20;;
146;SDS011;45999;48.808;9.182;2023-09-08T00:37:11;7.97;;;7.07;;
146;SDS011;45999;48.808;9.182;2023-09-08T00:39:37;7.83;;;7.07;;
146;SDS011;45999;48.808;9.182;2023-09-08T00:42:04;8.37;;;7.50;;
146;SDS011;45999;48.808;9.182;2023-09-08T00:44:31;7.23;;;6.53;;
146;SDS011;45999;48.808;9.182;2023-09-08T00:46:58;7.37;;;6.77;;
146;SDS011;45999;48.808;9.182;2023-09-08T00:49:24;9.37;;;6.20;;
146;SDS011;45999;48.808;9.182;2023-09-08T00:51:51;7.83;;;6.83;;
146;SDS011;45999;48.808;9.182;2023-09-08T00:54:17;7.63;;;7.00;;
146;SDS011;45999;48.808;9.182;2023-09-08T00:56:44;8.53;;;6.60;;
146;SDS011;45999;48.808;9.182;2023-09-08T00:59:12;10.83;;;7.03;;
146;SDS011;45999;48.808;9.182;2023-09-08T01:01:39;7.43;;;6.77;;
146;SDS011;45999;48.808;9.182;2023-09-08T01:04:05;7.73;;;6.90;;
146;SDS011;45999;48.808;9.182;2023-09-08T01:06:31;9.63;;;7.17;;
146;SDS011;45999;48.808;9.182;2023-09-08T01:08:58;8.77;;;6.80;;
146;SDS011;45999;48.808;9.182;2023-09-08T01:11:25;9.23;;;6.70;;
146;SDS011;45999;48.808;9.182;2023-09-08T01:13:52;8.00;;;6.47;;
146;SDS011;45999;48.808;9.182;2023-09-08T01:16:18;7.27;;;6.57;;
146;SDS011;45999;48.808;9.182;2023-09-08T01:18:45;7.83;;;7.03;;
146;SDS011;45999;48.808;9.182;2023-09-08T01:21:34;7.90;;;6.90;;
146;SDS011;45999;48.808;9.182;2023-09-08T01:24:31;8.17;;;6.40;;
146;SDS011;45999;48.808;9.182;2023-09-08T01:27:12;7.40;;;6.70;;
146;SDS011;45999;48.808;9.182;2023-09-08T01:29:40;8.57;;;6.47;;
146;SDS011;45999;48.808;9.182;2023-09-08T01:32:07;7.70;;;6.90;;
146;SDS011;45999;48.808;9.182;2023-09-08T01:34:35;7.50;;;6.80;;
146;SDS011;45999;48.808;9.182;2023-09-08T01:37:04;9.77;;;7.10;;
146;SDS011;45999;48.808;9.182;2023-09-08T01:39:32;7.77;;;7.00;;
146;SDS011;45999;48.808;9.182;2023-09-08T01:41:58;7.33;;;6.60;;
146;SDS011;45999;48.808;9.182;2023-09-08T01:44:25;8.77;;;7.00;;
146;SDS011;45999;48.808;9.182;2023-09-08T01:46:51;7.60;;;6.63;;
146;SDS011;45999;48.808;9.182;2023-09-08T01:49:21;7.67;;;6.73;;
146;SDS011;45999;48.808;9.182;2023-09-08T01:51:48;7.47;;;6.77;;
146;SDS011;45999;48.808;9.182;2023-09-08T01:54:15;8.80;;;6.57;;
146;SDS011;45999;48.808;9.182;2023-09-08T01:56:42;6.70;;;6.10;;
146;SDS011;45999;48.808;9.182;2023-09-08T01:59:08;7.40;;;6.70;;
146;SDS011;45999;48.808;9.182;2023-09-08T02:01:34;7.73;;;7.00;;
146;SDS011;45999;48.808;9.182;2023-09-08T02:04:01;7.40;;;6.70;;
146;SDS011;45999;48.808;9.182;2023-09-08T02:06:28;6.73;;;6.07;;
146;SDS011;45999;48.808;9.182;2023-09-08T02:08:54;7.73;;;6.93;;
146;SDS011;45999;48.808;9.182;2023-09-08T02:11:20;7.83;;;7.13;;
146;SDS011;45999;48.808;9.182;2023-09-08T02:13:47;7.80;;;7.00;;
146;SDS011;45999;48.808;9.182;2023-09-08T02:16:16;7.90;;;7.17;;
146;SDS011;45999;48.808;9.182;2023-09-08T02:18:43;7.77;;;6.80;;
146;SDS011;45999;48.808;9.182;2023-09-08T02:21:10;8.53;;;7.70;;
146;SDS011;45999;48.808;9.182;2023-09-08T02:23:37;8.73;;;7.77;;
146;SDS011;45999;48.808;9.182;2023-09-08T02:26:03;8.27;;;7.47;;
146;SDS011;45999;48.808;9.182;2023-09-08T02:28:30;8.17;;;7.33;;
146;SDS011;45999;48.808;9.182;2023-09-08T02:30:56;8.20;;;7.40;;
146;SDS011;45999;48.808;9.182;2023-09-08T02:33:22;8.30;;;7.50;;
146;SDS011;45999;48.808;9.182;2023-09-08T02:35:49;9.37;;;8.50;;
146;SDS011;45999;48.808;9.182;2023-09-08T02:38:15;8.97;;;7.60;;
146;SDS011;45999;48.808;9.182;2023-09-08T02:40:42;8.70;;;7.80;;
146;SDS011;45999;48.808;9.182;2023-09-08T02:43:09;9.53;;;8.10;;
146;SDS011;45999;48.808;9.182;2023-09-08T02:45:35;8.70;;;7.87;;
146;SDS011;45999;48.808;9.182;2023-09-08T02:48:02;9.10;;;8.20;;
146;SDS011;45999;48.808;9.182;2023-09-08T02:50:28;10.57;;;8.03;;
146;SDS011;45999;48.808;9.182;2023-09-08T02:52:54;8.70;;;7.90;;
146;SDS011;45999;48.808;9.182;2023-09-08T02:55:21;8.63;;;7.77;;
146;SDS011;45999;48.808;9.182;2023-09-08T02:57:47;8.20;;;7.40;;
146;SDS011;45999;48.808;9.182;2023-09-08T03:00:14;8.10;;;7.40;;
146;SDS011;45999;48.808;9.182;2023-09-08T03:02:40;8.57;;;7.67;;
146;SDS011;45999;48.808;9.182;2023-09-08T03:05:07;9.37;;;8.23;;
146;SDS011;45999;48.808;9.182;2023-09-08T03:07:33;10.17;;;7.77;;
146;SDS011;45999;48.808;9.182;2023-09-08T03:10:02;10.30;;;7.67;;
146;SDS011;45999;48.808;9.182;2023-09-08T03:12:30;9.60;;;7.43;;
146;SDS011;45999;48.808;9.182;2023-09-08T03:14:56;10.27;;;7.53;;
146;SDS011;45999;48.808;9.182;2023-09-08T03:17:22;8.70;;;7.90;;
146;SDS011;45999;48.808;9.182;2023-09-08T03:19:49;9.07;;;8.10;;
146;SDS011;45999;48.808;9.182;2023-09-08T03:22:15;9.67;;;8.30;;
146;SDS011;45999;48.808;9.182;2023-09-08T03:24:41;10.87;;;8.63;;
146;SDS011;45999;48.808;9.182;2023-09-08T03:27:08;9.73;;;8.33;;
146;SDS011;45999;48.808;9.182;2023-09-08T03:29:34;8.67;;;7.87;;
146;SDS011;45999;48.808;9.182;2023-09-08T03:32:00;9.33;;;8.43;;
146;SDS011;45999;48.808;9.182;2023-09-08T03:34:27;12.80;;;9.37;;
146;SDS011;45999;48.808;9.182;2023-09-08T03:36:53;11.07;;;9.00;;
146;SDS011;45999;48.808;9.182;2023-09-08T03:39:20;10.83;;;9.20;;
146;SDS011;45999;48.808;9.182;2023-09-08T03:41:46;13.90;;;9.40;;
146;SDS011;45999;48.808;9.182;2023-09-08T03:44:12;12.90;;;9.57;;
146;SDS011;45999;48.808;9.182;2023-09-08T03:46:39;13.67;;;9.50;;
146;SDS011;45999;48.808;9.182;2023-09-08T03:49:05;11.23;;;9.70;;
146;SDS011;45999;48.808;9.182;2023-09-08T03:51:32;11.97;;;9.77;;
146;SDS011;45999;48.808;9.182;2023-09-08T03:53:58;11.43;;;9.37;;
146;SDS011;45999;48.808;9.182;2023-09-08T03:56:25;10.27;;;8.83;;
146;SDS011;45999;48.808;9.182;2023-09-08T03:58:51;13.20;;;9.57;;
146;SDS011;45999;48.808;9.182;2023-09-08T04:01:18;13.20;;;9.63;;
146;SDS011;45999;48.808;9.182;2023-09-08T04:03:44;11.10;;;9.60;;
146;SDS011;45999;48.808;9.182;2023-09-08T04:06:10;10.90;;;9.80;;
146;SDS011;45999;48.808;9.182;2023-09-08T04:08:52;11.27;;;9.40;;
146;SDS011;45999;48.808;9.182;2023-09-08T04:11:18;13.40;;;10.00;;
146;SDS011;45999;48.808;9.182;2023-09-08T04:13:44;11.63;;;10.43;;
146;SDS011;45999;48.808;9.182;2023-09-08T04:16:11;12.30;;;9.50;;
146;SDS011;45999;48.808;9.182;2023-09-08T04:18:37;10.63;;;9.43;;
146;SDS011;45999;48.808;9.182;2023-09-08T04:21:05;9.97;;;8.67;;
146;SDS011;45999;48.808;9.182;2023-09-08T04:23:33;11.27;;;10.13;;
146;SDS011;45999;48.808;9.182;2023-09-08T04:25:59;10.67;;;9.57;;
146;SDS011;45999;48.808;9.182;2023-09-08T04:28:26;12.23;;;9.17;;
146;SDS011;45999;48.808;9.182;2023-09-08T04:30:52;11.10;;;9.77;;
146;SDS011;45999;48.808;9.182;2023-09-08T04:33:19;13.23;;;9.73;;
146;SDS011;45999;48.808;9.182;2023-09-08T04:35:45;10.63;;;9.00;;
146;SDS011;45999;48.808;9.182;2023-09-08T04:38:11;10.00;;;9.00;;
146;SDS011;45999;48.808;9.182;2023-09-08T04:40:41;10.33;;;9.27;;
146;SDS011;45999;48.808;9.182;2023-09-08T04:43:07;11.70;;;9.93;;
146;SDS011;45999;48.808;9.182;2023-09-08T04:45:34;10.87;;;8.67;;
146;SDS011;45999;48.808;9.182;2023-09-08T04:48:00;11.00;;;9.87;;
146;SDS011;45999;48.808;9.182;2023-09-08T04:50:27;10.07;;;9.07;;
146;SDS011;45999;48.808;9.182;2023-09-08T04:52:53;14.70;;;9.23;;
146;SDS011;45999;48.808;9.182;2023-09-08T04:55:19;10.47;;;9.23;;
146;SDS011;45999;48.808;9.182;2023-09-08T04:57:46;9.43;;;8.13;;
146;SDS011;45999;48.808;9.182;2023-09-08T05:00:12;10.43;;;9.43;;
146;SDS011;45999;48.808;9.182;2023-09-08T05:02:39;10.57;;;9.10;;
146;SDS011;45999;48.808;9.182;2023-09-08T05:05:05;10.93;;;9.70;;
146;SDS011;45999;48.808;9.182;2023-09-08T05:07:32;9.17;;;8.33;;
146;SDS011;45999;48.808;9.182;2023-09-08T05:09:58;13.23;;;9.43;;
146;SDS011;45999;48.808;9.182;2023-09-08T05:12:24;10.00;;;9.00;;
146;SDS011;45999;48.808;9.182;2023-09-08T05:14:51;11.67;;;9.20;;
146;SDS011;45999;48.808;9.182;2023-09-08T05:17:23;10.80;;;8.83;;
146;SDS011;45999;48.808;9.182;2023-09-08T05:19:50;12.33;;;9.47;;
146;SDS011;45999;48.808;9.182;2023-09-08T05:22:16;10.93;;;9.37;;
146;SDS011;45999;48.808;9.182;2023-09-08T05:24:43;12.37;;;9.63;;
146;SDS011;45999;48.808;9.182;2023-09-08T05:27:09;11.47;;;9.00;;
146;SDS011;45999;48.808;9.182;2023-09-08T05:29:36;10.70;;;9.63;;
146;SDS011;45999;48.808;9.182;2023-09-08T05:32:02;13.23;;;9.70;;
146;SDS011;45999;48.808;9.182;2023-09-08T05:34:29;10.33;;;9.23;;
146;SDS011;45999;48.808;9.182;2023-09-08T05:36:55;11.53;;;9.00;;
146;SDS011;45999;48.808;9.182;2023-09-08T05:39:22;10.37;;;8.53;;
146;SDS011;45999;48.808;9.182;2023-09-08T05:41:48;12.17;;;9.40;;
146;SDS011;45999;48.808;9.182;2023-09-08T05:44:15;13.00;;;8.90;;
146;SDS011;45999;48.808;9.182;2023-09-08T05:46:41;10.93;;;9.17;;
146;SDS011;45999;48.808;9.182;2023-09-08T05:49:07;14.57;;;9.50;;
146;SDS011;45999;48.808;9.182;2023-09-08T05:51:34;14.53;;;8.67;;
146;SDS011;45999;48.808;9.182;2023-09-08T05:54:00;9.07;;;8.17;;
146;SDS011;45999;48.808;9.182;2023-09-08T05:56:30;11.73;;;8.80;;
146;SDS011;45999;48.808;9.182;2023-09-08T05:58:57;10.97;;;9.00;;
146;SDS011;45999;48.808;9.182;2023-09-08T06:01:24;10.17;;;8.97;;
146;SDS011;45999;48.808;9.182;2023-09-08T06:03:50;12.07;;;8.40;;
146;SDS011;45999;48.808;9.182;2023-09-08T06:06:17;9.57;;;8.57;;
146;SDS011;45999;48.808;9.182;2023-09-08T06:08:43;9.90;;;8.73;;
146;SDS011;45999;48.808;9.182;2023-09-08T06:11:09;10.07;;;8.83;;
146;SDS011;45999;48.808;9.182;2023-09-08T06:13:40;11.70;;;9.03;;
146;SDS011;45999;48.808;9.182;2023-09-08T06:16:08;14.03;;;8.97;;
146;SDS011;45999;48.808;9.182;2023-09-08T06:18:35;10.63;;;8.60;;
146;SDS011;45999;48.808;9.182;2023-09-08T06:21:07;9.10;;;8.20;;
146;SDS011;45999;48.808;9.182;2023-09-08T06:23:34;12.43;;;9.40;;
146;SDS011;45999;48.808;9.182;2023-09-08T06:26:01;10.37;;;7.73;;
146;SDS011;45999;48.808;9.182;2023-09-08T06:28:28;9.20;;;8.30;;
146;SDS011;45999;48.808;9.182;2023-09-08T06:30:54;9.53;;;8.37;;
146;SDS011;45999;48.808;9.182;2023-09-08T06:33:21;9.00;;;8.17;;
146;SDS011;45999;48.808;9.182;2023-09-08T06:35:48;10.80;;;9.07;;
146;SDS011;45999;48.808;9.182;2023-09-08T06:38:14;11.27;;;8.80;;
146;SDS011;45999;48.808;9.182;2023-09-08T06:40:41;9.90;;;8.97;;
146;SDS011;45999;48.808;9.182;2023-09-08T06:43:07;9.67;;;8.70;;
146;SDS011;45999;48.808;9.182;2023-09-08T06:45:34;9.80;;;8.80;;
146;SDS011;45999;48.808;9.182;2023-09-08T06:48:00;11.60;;;9.10;;
146;SDS011;45999;48.808;9.182;2023-09-08T06:50:27;11.77;;;10.57;;
146;SDS011;45999;48.808;9.182;2023-09-08T06:52:55;10.73;;;9.43;;
146;SDS011;45999;48.808;9.182;2023-09-08T06:55:21;10.33;;;9.33;;
146;SDS011;45999;48.808;9.182;2023-09-08T06:57:47;10.73;;;9.63;;
146;SDS011;45999;48.808;9.182;2023-09-08T07:00:14;10.17;;;9.17;;
146;SDS011;45999;48.808;9.182;2023-09-08T07:02:42;11.00;;;9.57;;
146;SDS011;45999;48.808;9.182;2023-09-08T07:05:09;11.77;;;10.23;;
146;SDS011;45999;48.808;9.182;2023-09-08T07:07:35;11.20;;;9.67;;
146;SDS011;45999;48.808;9.182;2023-09-08T07:10:03;11.03;;;9.53;;
146;SDS011;45999;48.808;9.182;2023-09-08T07:12:30;11.07;;;9.67;;
146;SDS011;45999;48.808;9.182;2023-09-08T07:14:57;10.27;;;9.23;;
146;SDS011;45999;48.808;9.182;2023-09-08T07:17:24;11.73;;;9.33;;
146;SDS011;45999;48.808;9.182;2023-09-08T07:19:51;11.00;;;9.20;;
146;SDS011;45999;48.808;9.182;2023-09-08T07:22:18;10.23;;;9.07;;
146;SDS011;45999;48.808;9.182;2023-09-08T07:24:45;10.07;;;9.07;;
146;SDS011;45999;48.808;9.182;2023-09-08T07:27:11;11.73;;;9.23;;
146;SDS011;45999;48.808;9.182;2023-09-08T07:29:39;12.67;;;9.70;;
146;SDS011;45999;48.808;9.182;2023-09-08T07:32:06;10.97;;;9.43;;
146;SDS011;45999;48.808;9.182;2023-09-08T07:34:33;13.43;;;9.40;;
146;SDS011;45999;48.808;9.182;2023-09-08T07:37:00;12.93;;;9.23;;
146;SDS011;45999;48.808;9.182;2023-09-08T07:39:27;14.27;;;9.90;;
146;SDS011;45999;48.808;9.182;2023-09-08T07:41:53;11.43;;;9.17;;
146;SDS011;45999;48.808;9.182;2023-09-08T07:44:21;10.80;;;9.50;;
146;SDS011;45999;48.808;9.182;2023-09-08T07:46:47;16.83;;;9.67;;
146;SDS011;45999;48.808;9.182;2023-09-08T07:49:16;14.07;;;9.97;;
146;SDS011;45999;48.808;9.182;2023-09-08T07:51:44;12.77;;;8.97;;
146;SDS011;45999;48.808;9.182;2023-09-08T07:54:11;10.73;;;9.73;;
146;SDS011;45999;48.808;9.182;2023-09-08T07:56:37;10.93;;;8.97;;
146;SDS011;45999;48.808;9.182;2023-09-08T07:59:05;10.43;;;9.17;;
146;SDS011;45999;48.808;9.182;2023-09-08T08:01:32;10.83;;;9.17;;
146;SDS011;45999;48.808;9.182;2023-09-08T08:03:58;10.90;;;8.67;;
146;SDS011;45999;48.808;9.182;2023-09-08T08:06:26;9.57;;;8.57;;
146;SDS011;45999;48.808;9.182;2023-09-08T08:08:53;9.80;;;8.43;;
146;SDS011;45999;48.808;9.182;2023-09-08T08:11:19;9.70;;;8.37;;
146;SDS011;45999;48.808;9.182;2023-09-08T08:13:46;10.63;;;8.63;;
146;SDS011;45999;48.808;9.182;2023-09-08T08:16:12;11.67;;;8.77;;
146;SDS011;45999;48.808;9.182;2023-09-08T08:18:39;8.87;;;7.87;;
146;SDS011;45999;48.808;9.182;2023-09-08T08:21:05;8.70;;;7.80;;
146;SDS011;45999;48.808;9.182;2023-09-08T08:23:32;9.03;;;8.13;;
146;SDS011;45999;48.808;9.182;2023-09-08T08:25:59;10.33;;;8.77;;
146;SDS011;45999;48.808;9.182;2023-09-08T08:28:25;9.10;;;7.70;;
146;SDS011;45999;48.808;9.182;2023-09-08T08:30:52;10.00;;;7.73;;
146;SDS011;45999;48.808;9.182;2023-09-08T08:33:19;10.63;;;8.73;;
146;SDS011;45999;48.808;9.182;2023-09-08T08:35:50;8.70;;;7.87;;
146;SDS011;45999;48.808;9.182;2023-09-08T08:38:18;11.97;;;7.83;;
146;SDS011;45999;48.808;9.182;2023-09-08T08:40:44;10.83;;;7.53;;
146;SDS011;45999;48.808;9.182;2023-09-08T08:43:11;9.60;;;7.60;;
146;SDS011;45999;48.808;9.182;2023-09-08T08:45:37;9.65;;;7.43;;
146;SDS011;45999;48.808;9.182;2023-09-08T08:48:05;8.23;;;7.43;;
146;SDS011;45999;48.808;9.182;2023-09-08T08:50:32;11.35;;;8.38;;
146;SDS011;45999;48.808;9.182;2023-09-08T08:52:58;8.70;;;7.47;;
146;SDS011;45999;48.808;9.182;2023-09-08T08:55:26;9.45;;;6.93;;
146;SDS011;45999;48.808;9.182;2023-09-08T08:58:00;8.63;;;7.13;;
146;SDS011;45999;48.808;9.182;2023-09-08T09:00:30;11.52;;;7.85;;
146;SDS011;45999;48.808;9.182;2023-09-08T09:03:00;10.60;;;7.30;;
146;SDS011;45999;48.808;9.182;2023-09-08T09:05:29;11.15;;;7.18;;
146;SDS011;45999;48.808;9.182;2023-09-08T09:07:57;8.20;;;7.15;;
146;SDS011;45999;48.808;9.182;2023-09-08T09:10:25;12.70;;;7.60;;
146;SDS011;45999;48.808;9.182;2023-09-08T09:12:51;8.57;;;7.03;;
146;SDS011;45999;48.808;9.182;2023-09-08T09:15:27;7.78;;;7.00;;
146;SDS011;45999;48.808;9.182;2023-09-08T09:18:04;7.40;;;6.15;;
146;SDS011;45999;48.808;9.182;2023-09-08T09:20:31;8.93;;;6.70;;
146;SDS011;45999;48.808;9.182;2023-09-08T09:22:58;7.90;;;6.97;;
146;SDS011;45999;48.808;9.182;2023-09-08T09:25:25;9.80;;;7.10;;
146;SDS011;45999;48.808;9.182;2023-09-08T09:27:54;10.32;;;6.68;;
146;SDS011;45999;48.808;9.182;2023-09-08T09:30:22;10.93;;;7.03;;
146;SDS011;45999;48.808;9.182;2023-09-08T09:32:58;7.03;;;6.38;;
146;SDS011;45999;48.808;9.182;2023-09-08T09:35:44;9.73;;;6.75;;
146;SDS011;45999;48.808;9.182;2023-09-08T09:38:12;8.50;;;6.90;;
146;SDS011;45999;48.808;9.182;2023-09-08T09:40:39;7.78;;;6.82;;
146;SDS011;45999;48.808;9.182;2023-09-08T09:43:06;8.38;;;6.70;;
146;SDS011;45999;48.808;9.182;2023-09-08T09:45:33;7.32;;;6.57;;
146;SDS011;45999;48.808;9.182;2023-09-08T09:48:02;8.15;;;6.60;;
146;SDS011;45999;48.808;9.182;2023-09-08T09:50:30;6.82;;;6.13;;
146;SDS011;45999;48.808;9.182;2023-09-08T09:52:58;6.78;;;5.95;;
146;SDS011;45999;48.808;9.182;2023-09-08T09:55:26;8.32;;;5.90;;
146;SDS011;45999;48.808;9.182;2023-09-08T09:57:56;6.90;;;5.32;;
146;SDS011;45999;48.808;9.182;2023-09-08T10:00:25;10.30;;;6.22;;
146;SDS011;45999;48.808;9.182;2023-09-08T10:02:53;7.45;;;5.75;;
146;SDS011;45999;48.808;9.182;2023-09-08T10:05:21;7.90;;;5.80;;
146;SDS011;45999;48.808;9.182;2023-09-08T10:07:47;6.60;;;5.43;;
146;SDS011;45999;48.808;9.182;2023-09-08T10:10:15;7.75;;;5.72;;
146;SDS011;45999;48.808;9.182;2023-09-08T10:12:46;6.60;;;5.65;;
146;SDS011;45999;48.808;9.182;2023-09-08T10:15:22;6.25;;;5.40;;
146;SDS011;45999;48.808;9.182;2023-09-08T10:17:56;6.35;;;5.75;;
146;SDS011;45999;48.808;9.182;2023-09-08T10:20:24;8.48;;;5.55;;
146;SDS011;45999;48.808;9.182;2023-09-08T10:22:53;6.20;;;5.50;;
146;SDS011;45999;48.808;9.182;2023-09-08T10:25:24;6.18;;;5.57;;
146;SDS011;45999;48.808;9.182;2023-09-08T10:27:54;7.90;;;5.60;;
146;SDS011;45999;48.808;9.182;2023-09-08T10:30:21;5.30;;;4.80;;
146;SDS011;45999;48.808;9.182;2023-09-08T10:32:50;6.13;;;5.22;;
146;SDS011;45999;48.808;9.182;2023-09-08T10:35:17;8.73;;;6.55;;
146;SDS011;45999;48.808;9.182;2023-09-08T10:37:44;6.45;;;5.20;;
146;SDS011;45999;48.808;9.182;2023-09-08T10:40:20;6.28;;;5.68;;
146;SDS011;45999;48.808;9.182;2023-09-08T10:42:48;8.02;;;5.22;;
146;SDS011;45999;48.808;9.182;2023-09-08T10:45:16;5.30;;;4.80;;
146;SDS011;45999;48.808;9.182;2023-09-08T10:50:17;5.50;;;4.70;;
146;SDS011;45999;48.808;9.182;2023-09-08T10:52:45;6.03;;;5.47;;
146;SDS011;45999;48.808;9.182;2023-09-08T10:58:33;5.57;;;5.13;;
146;SDS011;45999;48.808;9.182;2023-09-08T11:01:03;5.85;;;5.30;;
146;SDS011;45999;48.808;9.182;2023-09-08T11:06:03;5.30;;;4.80;;
146;SDS011;45999;48.808;9.182;2023-09-08T11:08:30;5.28;;;4.80;;
146;SDS011;45999;48.808;9.182;2023-09-08T11:10:58;5.35;;;4.95;;
146;SDS011;45999;48.808;9.182;2023-09-08T11:13:25;7.20;;;4.97;;
146;SDS011;45999;48.808;9.182;2023-09-08T11:15:53;7.75;;;5.57;;
146;SDS011;45999;48.808;9.182;2023-09-08T11:18:32;5.78;;;5.28;;
146;SDS011;45999;48.808;9.182;2023-09-08T11:21:00;5.93;;;5.40;;
146;SDS011;45999;48.808;9.182;2023-09-08T11:23:28;6.55;;;5.22;;
146;SDS011;45999;48.808;9.182;2023-09-08T11:25:56;7.53;;;5.45;;
146;SDS011;45999;48.808;9.182;2023-09-08T11:28:23;6.05;;;5.45;;
146;SDS011;45999;48.808;9.182;2023-09-08T11:30:50;6.03;;;5.47;;
146;SDS011;45999;48.808;9.182;2023-09-08T11:33:17;6.15;;;5.55;;
146;SDS011;45999;48.808;9.182;2023-09-08T11:35:49;6.63;;;5.93;;
146;SDS011;45999;48.808;9.182;2023-09-08T11:38:16;6.00;;;5.50;;
146;SDS011;45999;48.808;9.182;2023-09-08T11:40:42;5.95;;;5.47;;
146;SDS011;45999;48.808;9.182;2023-09-08T11:43:09;5.93;;;5.25;;
146;SDS011;45999;48.808;9.182;2023-09-08T11:45:35;6.15;;;5.60;;
146;SDS011;45999;48.808;9.182;2023-09-08T11:48:03;7.88;;;5.60;;
146;SDS011;45999;48.808;9.182;2023-09-08T11:50:30;5.95;;;5.45;;
146;SDS011;45999;48.808;9.182;2023-09-08T11:52:57;6.28;;;5.70;;
146;SDS011;45999;48.808;9.182;2023-09-08T11:55:25;5.93;;;5.32;;
146;SDS011;45999;48.808;9.182;2023-09-08T11:57:52;8.13;;;5.63;;
146;SDS011;45999;48.808;9.182;2023-09-08T12:00:22;5.90;;;5.30;;
146;SDS011;45999;48.808;9.182;2023-09-08T12:02:49;5.97;;;5.50;;
146;SDS011;45999;48.808;9.182;2023-09-08T12:05:22;6.60;;;5.13;;
146;SDS011;45999;48.808;9.182;2023-09-08T12:07:51;6.22;;;5.30;;
146;SDS011;45999;48.808;9.182;2023-09-08T12:10:18;6.50;;;5.63;;
146;SDS011;45999;48.808;9.182;2023-09-08T12:15:33;7.10;;;4.93;;
146;SDS011;45999;48.808;9.182;2023-09-08T12:18:02;6.47;;;5.50;;
146;SDS011;45999;48.808;9.182;2023-09-08T12:20:30;6.07;;;5.47;;
146;SDS011;45999;48.808;9.182;2023-09-08T12:23:02;5.97;;;5.47;;
146;SDS011;45999;48.808;9.182;2023-09-08T12:25:48;6.05;;;5.45;;
146;SDS011;45999;48.808;9.182;2023-09-08T12:28:17;5.78;;;5.07;;
146;SDS011;45999;48.808;9.182;2023-09-08T12:30:45;6.03;;;5.32;;
146;SDS011;45999;48.808;9.182;2023-09-08T12:33:11;6.28;;;5.78;;
146;SDS011;45999;48.808;9.182;2023-09-08T12:35:42;6.22;;;5.72;;
146;SDS011;45999;48.808;9.182;2023-09-08T12:38:09;5.80;;;5.07;;
146;SDS011;45999;48.808;9.182;2023-09-08T12:40:36;6.55;;;5.95;;
146;SDS011;45999;48.808;9.182;2023-09-08T12:43:04;6.00;;;5.57;;
146;SDS011;45999;48.808;9.182;2023-09-08T12:45:31;6.50;;;5.90;;
146;SDS011;45999;48.808;9.182;2023-09-08T12:47:58;6.25;;;5.75;;
146;SDS011;45999;48.808;9.182;2023-09-08T12:50:27;6.35;;;5.78;;
146;SDS011;45999;48.808;9.182;2023-09-08T12:52:54;5.90;;;5.40;;
146;SDS011;45999;48.808;9.182;2023-09-08T12:55:20;6.55;;;5.70;;
146;SDS011;45999;48.808;9.182;2023-09-08T12:57:47;5.70;;;5.15;;
146;SDS011;45999;48.808;9.182;2023-09-08T13:00:15;5.82;;;5.32;;
146;SDS011;45999;48.808;9.182;2023-09-08T13:02:41;6.70;;;5.65;;
146;SDS011;45999;48.808;9.182;2023-09-08T13:05:07;6.15;;;5.30;;
146;SDS011;45999;48.808;9.182;2023-09-08T13:07:34;7.57;;;5.15;;
146;SDS011;45999;48.808;9.182;2023-09-08T13:10:00;6.32;;;5.63;;
146;SDS011;45999;48.808;9.182;2023-09-08T13:12:27;7.80;;;5.82;;
146;SDS011;45999;48.808;9.182;2023-09-08T13:14:53;8.15;;;5.22;;
146;SDS011;45999;48.808;9.182;2023-09-08T13:17:19;6.20;;;5.60;;
146;SDS011;45999;48.808;9.182;2023-09-08T13:19:47;5.60;;;5.20;;
146;SDS011;45999;48.808;9.182;2023-09-08T13:22:13;5.65;;;5.15;;
146;SDS011;45999;48.808;9.182;2023-09-08T13:24:39;5.75;;;5.07;;
146;SDS011;45999;48.808;9.182;2023-09-08T13:27:06;6.05;;;5.20;;
146;SDS011;45999;48.808;9.182;2023-09-08T13:29:32;7.53;;;4.90;;
146;SDS011;45999;48.808;9.182;2023-09-08T13:31:59;5.90;;;5.10;;
146;SDS011;45999;48.808;9.182;2023-09-08T13:34:25;6.07;;;5.40;;
146;SDS011;45999;48.808;9.182;2023-09-08T13:36:52;5.32;;;4.93;;
146;SDS011;45999;48.808;9.182;2023-09-08T13:39:18;6.47;;;5.50;;
146;SDS011;45999;48.808;9.182;2023-09-08T13:44:15;5.47;;;5.05;;
146;SDS011;45999;48.808;9.182;2023-09-08T13:46:42;7.80;;;5.25;;
146;SDS011;45999;48.808;9.182;2023-09-08T13:49:09;5.25;;;4.70;;
146;SDS011;45999;48.808;9.182;2023-09-08T13:51:35;5.38;;;4.97;;
146;SDS011;45999;48.808;9.182;2023-09-08T13:54:01;6.50;;;4.85;;
146;SDS011;45999;48.808;9.182;2023-09-08T13:56:28;8.40;;;5.07;;
146;SDS011;45999;48.808;9.182;2023-09-08T13:58:54;4.88;;;4.43;;
146;SDS011;45999;48.808;9.182;2023-09-08T14:01:20;6.60;;;5.88;;
146;SDS011;45999;48.808;9.182;2023-09-08T14:03:47;5.75;;;5.28;;
146;SDS011;45999;48.808;9.182;2023-09-08T14:06:16;6.45;;;4.97;;
146;SDS011;45999;48.808;9.182;2023-09-08T14:08:43;5.63;;;4.75;;
146;SDS011;45999;48.808;9.182;2023-09-08T14:11:09;5.28;;;4.78;;
146;SDS011;45999;48.808;9.182;2023-09-08T14:13:37;7.90;;;7.28;;
146;SDS011;45999;48.808;9.182;2023-09-08T14:16:03;5.22;;;4.72;;
146;SDS011;45999;48.808;9.182;2023-09-08T14:18:30;6.10;;;5.60;;
146;SDS011;45999;48.808;9.182;2023-09-08T14:20:56;11.10;;;10.00;;
146;SDS011;45999;48.808;9.182;2023-09-08T14:23:22;6.05;;;5.45;;
146;SDS011;45999;48.808;9.182;2023-09-08T14:25:49;9.48;;;4.90;;
146;SDS011;45999;48.808;9.182;2023-09-08T14:28:15;5.28;;;4.78;;
146;SDS011;45999;48.808;9.182;2023-09-08T14:30:41;6.90;;;4.55;;
146;SDS011;45999;48.808;9.182;2023-09-08T14:33:10;5.95;;;5.30;;
146;SDS011;45999;48.808;9.182;2023-09-08T14:35:40;5.82;;;4.65;;
146;SDS011;45999;48.808;9.182;2023-09-08T14:38:08;5.25;;;4.78;;
146;SDS011;45999;48.808;9.182;2023-09-08T14:40:35;5.60;;;4.38;;
146;SDS011;45999;48.808;9.182;2023-09-08T14:43:01;5.25;;;4.72;;
146;SDS011;45999;48.808;9.182;2023-09-08T14:45:28;5.00;;;4.60;;
146;SDS011;45999;48.808;9.182;2023-09-08T14:47:54;4.70;;;4.30;;
146;SDS011;45999;48.808;9.182;2023-09-08T14:50:20;5.30;;;4.80;;
146;SDS011;45999;48.808;9.182;2023-09-08T14:52:47;5.60;;;5.10;;
146;SDS011;45999;48.808;9.182;2023-09-08T14:55:13;7.90;;;4.85;;
146;SDS011;45999;48.808;9.182;2023-09-08T14:57:39;6.70;;;4.72;;
146;SDS011;45999;48.808;9.182;2023-09-08T15:00:07;5.93;;;4.75;;
146;SDS011;45999;48.808;9.182;2023-09-08T15:02:34;6.90;;;4.78;;
146;SDS011;45999;48.808;9.182;2023-09-08T15:05:01;5.38;;;4.88;;
146;SDS011;45999;48.808;9.182;2023-09-08T15:07:27;7.45;;;3.92;;
146;SDS011;45999;48.808;9.182;2023-09-08T15:09:53;5.03;;;4.60;;
146;SDS011;45999;48.808;9.182;2023-09-08T15:12:21;4.80;;;4.40;;
146;SDS011;45999;48.808;9.182;2023-09-08T15:14:47;5.05;;;4.60;;
146;SDS011;45999;48.808;9.182;2023-09-08T15:17:14;5.20;;;4.30;;
146;SDS011;45999;48.808;9.182;2023-09-08T15:19:41;5.30;;;4.82;;
146;SDS011;45999;48.808;9.182;2023-09-08T15:22:07;4.90;;;4.50;;
146;SDS011;45999;48.808;9.182;2023-09-08T15:24:33;4.97;;;4.53;;